Time;durP1;ratioP1;P1;durP2;ratioP2;P2;SDS_P1;SDS_P2;PMS_P1;PMS_P2;Temp;Humidity;BMP_temperature;BMP_pressure;BME280_temperature;BME280_humidity;BME280_pressure;Samples;Min_cycle;Max_cycle;Signal;HPM_P1;HPM_P2
2022/06/15 00:01:39;;;;;;;5.03;2.90;;;15.20;99.90;;;;;;5110168;28;20207;-52
2022/06/15 00:04:08;;;;;;;3.10;2.80;;;15.10;99.90;;;;;;5110147;28;20204;-52
2022/06/15 00:06:41;;;;;;;4.68;3.20;;;15.00;99.90;;;;;;5109371;28;20227;-51
2022/06/15 00:09:10;;;;;;;4.05;3.03;;;15.00;99.90;;;;;;5110249;28;20244;-50
2022/06/15 00:11:41;;;;;;;5.03;2.60;;;14.90;99.90;;;;;;5111462;28;20208;-51
2022/06/15 00:14:16;;;;;;;5.00;3.08;;;14.90;99.90;;;;;;5113916;28;20738;-51
2022/06/15 00:16:44;;;;;;;6.78;2.97;;;14.90;99.90;;;;;;5112491;28;20250;-52
2022/06/15 00:19:12;;;;;;;7.40;2.92;;;14.90;99.90;;;;;;5110157;28;20362;-52
2022/06/15 00:21:42;;;;;;;5.78;2.83;;;14.90;99.90;;;;;;5100873;28;20232;-52
2022/06/15 00:24:11;;;;;;;5.35;2.92;;;14.90;99.90;;;;;;5099636;28;20238;-52
2022/06/15 00:26:40;;;;;;;5.18;2.70;;;14.80;99.90;;;;;;5109243;28;20274;-52
2022/06/15 00:29:08;;;;;;;5.03;2.73;;;14.90;99.90;;;;;;5109148;28;20203;-52
2022/06/15 00:31:36;;;;;;;5.82;2.70;;;14.90;99.90;;;;;;5109361;28;20214;-51
2022/06/15 00:34:05;;;;;;;5.03;2.80;;;14.90;99.90;;;;;;5109559;28;20273;-52
2022/06/15 00:36:33;;;;;;;5.20;2.80;;;14.90;99.90;;;;;;5109589;28;20235;-52
2022/06/15 00:39:03;;;;;;;4.15;2.83;;;14.90;99.90;;;;;;5095349;28;20711;-52
2022/06/15 00:41:35;;;;;;;4.40;2.72;;;14.90;99.90;;;;;;5110371;28;20246;-52
2022/06/15 00:44:19;;;;;;;5.32;3.20;;;14.90;99.90;;;;;;5109597;28;20250;-52
2022/06/15 00:46:49;;;;;;;5.30;3.10;;;14.70;99.90;;;;;;5108552;28;20242;-52
2022/06/15 00:49:21;;;;;;;5.50;3.40;;;14.50;99.90;;;;;;5096511;28;20211;-52
2022/06/15 00:51:52;;;;;;;4.13;3.00;;;14.40;99.90;;;;;;5109539;28;20211;-52
2022/06/15 00:54:23;;;;;;;5.23;3.20;;;14.30;99.90;;;;;;5109569;28;20779;-51
2022/06/15 00:56:52;;;;;;;5.80;3.47;;;14.30;99.90;;;;;;5109671;28;20223;-51
2022/06/15 00:59:35;;;;;;;6.47;3.70;;;14.20;99.90;;;;;;5109630;28;20235;-51
2022/06/15 01:02:03;;;;;;;6.23;3.60;;;14.10;99.90;;;;;;5100546;28;20208;-52
2022/06/15 01:04:39;;;;;;;8.43;3.67;;;13.90;99.90;;;;;;5109489;28;20195;-51
2022/06/15 01:07:26;;;;;;;7.40;3.53;;;13.80;99.90;;;;;;5109398;28;20630;-52
2022/06/15 01:10:03;;;;;;;5.60;3.50;;;13.80;99.90;;;;;;5108979;28;20571;-52
2022/06/15 01:12:39;;;;;;;5.10;3.40;;;13.70;99.90;;;;;;5109304;28;20327;-52
2022/06/15 01:15:25;;;;;;;6.47;3.57;;;13.60;99.90;;;;;;5109623;28;20211;-52
2022/06/15 01:18:10;;;;;;;5.47;3.70;;;13.60;99.90;;;;;;5105125;28;20231;-51
2022/06/15 01:20:52;;;;;;;8.93;3.73;;;13.60;99.90;;;;;;5109186;28;20238;-52
2022/06/15 01:23:47;;;;;;;5.30;3.90;;;13.50;99.90;;;;;;5098928;28;20207;-52
2022/06/15 01:26:47;;;;;;;7.17;3.70;;;13.40;99.90;;;;;;5081400;28;20339;-52
2022/06/15 01:29:39;;;;;;;7.10;3.60;;;13.40;99.90;;;;;;5075046;28;20630;-52
2022/06/15 01:32:14;;;;;;;4.50;3.50;;;13.40;99.90;;;;;;5108789;28;20567;-52
2022/06/15 01:34:49;;;;;;;6.63;3.67;;;13.30;99.90;;;;;;5108992;28;20258;-52
2022/06/15 01:37:25;;;;;;;5.13;3.30;;;13.30;99.90;;;;;;5109594;28;20238;-52
2022/06/15 01:39:57;;;;;;;6.20;3.60;;;13.20;99.90;;;;;;5111421;28;20207;-51
2022/06/15 01:42:31;;;;;;;7.20;3.87;;;13.10;99.90;;;;;;5112895;28;20669;-52
2022/06/15 01:45:02;;;;;;;6.90;4.17;;;13.10;99.90;;;;;;5105332;28;20208;-51
2022/06/15 01:47:33;;;;;;;5.97;3.67;;;13.10;99.90;;;;;;5106606;28;20317;-51
2022/06/15 01:50:06;;;;;;;6.17;3.90;;;13.00;99.90;;;;;;5112985;28;20207;-52
2022/06/15 01:52:39;;;;;;;6.10;3.70;;;13.00;99.90;;;;;;5112993;28;20203;-52
2022/06/15 01:55:12;;;;;;;7.10;4.13;;;12.90;99.90;;;;;;5113394;28;20268;-51
2022/06/15 01:57:43;;;;;;;7.60;4.10;;;12.90;99.90;;;;;;5112676;28;20263;-51
2022/06/15 02:00:16;;;;;;;7.97;4.03;;;12.80;99.90;;;;;;5113191;28;20238;-51
2022/06/15 02:02:56;;;;;;;5.70;4.03;;;12.80;99.90;;;;;;5112885;28;20212;-51
2022/06/15 02:05:32;;;;;;;8.67;3.83;;;12.80;99.90;;;;;;5113101;28;20206;-52
2022/06/15 02:08:08;;;;;;;5.37;3.50;;;12.70;99.90;;;;;;5111985;28;20223;-51
2022/06/15 02:10:40;;;;;;;6.77;4.00;;;12.70;99.90;;;;;;5111603;28;20247;-51
2022/06/15 02:13:16;;;;;;;5.80;3.63;;;12.70;99.90;;;;;;5112811;28;20211;-51
2022/06/15 02:15:48;;;;;;;7.87;4.00;;;12.60;99.90;;;;;;5111828;28;20303;-51
2022/06/15 02:18:21;;;;;;;5.57;3.77;;;12.60;99.90;;;;;;5112815;28;20227;-52
2022/06/15 02:20:55;;;;;;;7.17;3.70;;;12.60;99.90;;;;;;5106093;28;20257;-52
2022/06/15 02:23:25;;;;;;;8.73;4.13;;;12.50;99.90;;;;;;5106360;28;20208;-51
2022/06/15 02:25:54;;;;;;;4.40;3.77;;;12.50;99.90;;;;;;5112347;28;20192;-51
2022/06/15 02:28:28;;;;;;;5.93;3.90;;;12.50;99.90;;;;;;5102887;28;20204;-51
2022/06/15 02:30:56;;;;;;;6.27;4.20;;;12.50;99.90;;;;;;5111203;28;20644;-51
2022/06/15 02:33:29;;;;;;;4.50;3.77;;;12.50;99.90;;;;;;5112080;28;20211;-51
2022/06/15 02:35:58;;;;;;;6.47;3.80;;;12.50;99.90;;;;;;5112170;28;20602;-50
2022/06/15 02:38:27;;;;;;;5.63;3.60;;;12.40;99.90;;;;;;5111457;28;20692;-52
2022/06/15 02:40:56;;;;;;;7.07;3.70;;;12.50;99.90;;;;;;5112442;28;20665;-51
2022/06/15 02:43:29;;;;;;;6.90;3.90;;;12.40;99.90;;;;;;5111616;28;20208;-51
2022/06/15 02:46:00;;;;;;;7.30;3.97;;;12.40;99.90;;;;;;5112150;28;20649;-52
2022/06/15 02:48:36;;;;;;;7.57;3.80;;;12.30;99.90;;;;;;5100950;28;20231;-52
2022/06/15 02:51:08;;;;;;;5.07;3.50;;;12.30;99.90;;;;;;5111647;28;20203;-52
2022/06/15 02:53:39;;;;;;;4.27;3.53;;;12.30;99.90;;;;;;5111126;28;20726;-52
2022/06/15 02:56:10;;;;;;;6.07;4.00;;;12.30;99.90;;;;;;5111461;28;20387;-51
2022/06/15 02:58:40;;;;;;;7.17;3.53;;;12.30;99.90;;;;;;5111694;28;20200;-51
2022/06/15 03:01:09;;;;;;;8.13;3.50;;;12.30;99.90;;;;;;5111630;28;20256;-51
2022/06/15 03:03:39;;;;;;;6.50;3.60;;;12.30;99.90;;;;;;5110833;28;20241;-51
2022/06/15 03:06:11;;;;;;;5.00;3.57;;;12.20;99.90;;;;;;5111944;28;20247;-51
2022/06/15 03:08:39;;;;;;;3.47;3.10;;;12.30;99.90;;;;;;5111009;28;20208;-51
2022/06/15 03:11:07;;;;;;;5.57;3.40;;;12.20;99.90;;;;;;5111260;28;20207;-51
2022/06/15 03:13:35;;;;;;;5.83;3.60;;;12.20;99.90;;;;;;5110925;28;20700;-52
2022/06/15 03:16:05;;;;;;;5.33;3.53;;;12.10;99.90;;;;;;5111097;28;20265;-52
2022/06/15 03:18:33;;;;;;;4.53;3.30;;;12.10;99.90;;;;;;5110850;28;20243;-51
2022/06/15 03:21:04;;;;;;;4.77;3.80;;;12.10;99.90;;;;;;5109616;28;20208;-51
2022/06/15 03:23:32;;;;;;;6.50;3.20;;;12.10;99.90;;;;;;5106155;28;20204;-51
2022/06/15 03:26:02;;;;;;;4.73;3.60;;;12.20;99.90;;;;;;5111329;28;20301;-51
2022/06/15 03:28:31;;;;;;;8.27;3.80;;;12.20;99.90;;;;;;5103215;28;20200;-51
2022/06/15 03:30:59;;;;;;;5.27;3.27;;;12.20;99.90;;;;;;5111218;28;20231;-51
2022/06/15 03:33:27;;;;;;;5.30;3.53;;;12.10;99.90;;;;;;5110750;28;20253;-51
2022/06/15 03:35:55;;;;;;;6.33;2.70;;;12.10;99.90;;;;;;5111385;28;20282;-51
2022/06/15 03:38:25;;;;;;;4.57;3.20;;;12.20;99.90;;;;;;5111166;28;20668;-51
2022/06/15 03:40:54;;;;;;;7.00;2.97;;;12.20;99.90;;;;;;5112191;28;20276;-51
2022/06/15 03:43:22;;;;;;;4.00;3.10;;;12.20;99.90;;;;;;5112411;28;20260;-50
2022/06/15 03:45:50;;;;;;;5.07;3.53;;;12.20;99.90;;;;;;5112361;28;20217;-51
2022/06/15 03:48:18;;;;;;;5.03;3.30;;;12.20;99.90;;;;;;5092590;28;20215;-51
2022/06/15 03:50:47;;;;;;;5.33;3.47;;;12.20;99.90;;;;;;5110452;28;20256;-51
2022/06/15 03:53:15;;;;;;;5.93;3.30;;;12.10;99.90;;;;;;5110098;28;20233;-51
2022/06/15 03:55:44;;;;;;;8.00;3.10;;;12.20;99.90;;;;;;5110823;28;20251;-52
2022/06/15 03:58:14;;;;;;;6.40;3.60;;;12.20;99.90;;;;;;5110384;28;20680;-51
2022/06/15 04:00:43;;;;;;;4.40;3.17;;;12.20;99.90;;;;;;5110599;28;20623;-52
2022/06/15 04:03:11;;;;;;;7.13;3.60;;;12.30;99.90;;;;;;5109216;28;20207;-51
2022/06/15 04:05:43;;;;;;;7.20;3.40;;;12.40;99.90;;;;;;5104498;28;20203;-51
2022/06/15 04:11:03;;;;;;;4.63;3.27;;;12.50;99.90;;;;;;5109003;28;20203;-51
2022/06/15 04:13:31;;;;;;;6.57;3.90;;;13.30;99.90;;;;;;5109802;28;20207;-52
2022/06/15 04:16:00;;;;;;;3.97;3.40;;;14.50;99.90;;;;;;5110245;28;20273;-51
2022/06/15 04:18:28;;;;;;;4.45;2.92;;;15.50;99.90;;;;;;5109747;28;20212;-52
2022/06/15 04:20:56;;;;;;;5.18;2.92;;;16.20;99.90;;;;;;5104412;28;20203;-52
2022/06/15 04:23:24;;;;;;;3.42;2.95;;;16.80;99.90;;;;;;5104198;28;20208;-51
2022/06/15 04:25:57;;;;;;;5.57;2.70;;;17.30;99.90;;;;;;5110031;28;20722;-52
2022/06/15 04:28:32;;;;;;;2.45;2.20;;;17.60;99.90;;;;;;5110240;28;20211;-51
2022/06/15 04:31:00;;;;;;;3.83;2.60;;;18.10;99.90;;;;;;5110006;28;20246;-52
2022/06/15 04:33:28;;;;;;;3.50;2.50;;;18.40;99.90;;;;;;5110180;28;20242;-51
2022/06/15 04:35:57;;;;;;;3.85;2.33;;;18.70;99.90;;;;;;5110002;28;20303;-51
2022/06/15 04:38:26;;;;;;;4.22;2.42;;;19.10;99.90;;;;;;5109799;28;20211;-49
2022/06/15 04:40:54;;;;;;;4.03;2.88;;;19.50;99.90;;;;;;5110158;28;20253;-52
2022/06/15 04:43:22;;;;;;;3.70;2.55;;;19.60;99.90;;;;;;5109431;28;20252;-51
2022/06/15 04:45:52;;;;;;;4.57;2.50;;;19.80;99.90;;;;;;5110001;28;20204;-52
2022/06/15 04:48:20;;;;;;;3.85;2.33;;;20.00;99.90;;;;;;5104697;28;20214;-52
2022/06/15 04:50:48;;;;;;;4.18;2.33;;;20.40;99.90;;;;;;5109758;28;20235;-52
2022/06/15 04:53:16;;;;;;;6.78;2.30;;;20.50;99.90;;;;;;5109418;28;20230;-52
2022/06/15 04:55:44;;;;;;;4.75;2.40;;;20.80;99.90;;;;;;5109360;28;20255;-51
2022/06/15 04:58:12;;;;;;;2.38;2.05;;;21.00;99.90;;;;;;5109741;28;20211;-52
2022/06/15 05:00:42;;;;;;;4.43;2.10;;;21.30;99.90;;;;;;5109547;28;20242;-52
2022/06/15 05:03:12;;;;;;;3.78;2.53;;;21.70;99.90;;;;;;5109513;28;20227;-51
2022/06/15 05:05:40;;;;;;;4.13;2.25;;;22.00;99.90;;;;;;5100910;28;20661;-50
2022/06/15 05:08:08;;;;;;;4.78;2.40;;;22.30;99.90;;;;;;5106663;28;20211;-52
2022/06/15 05:10:36;;;;;;;4.65;2.53;;;22.50;99.90;;;;;;5109433;28;20199;-52
2022/06/15 05:13:05;;;;;;;4.05;2.30;;;22.70;99.90;;;;;;5109782;28;20260;-52
2022/06/15 05:15:33;;;;;;;3.83;2.50;;;22.90;99.90;;;;;;5113679;28;20200;-52
2022/06/15 05:18:04;;;;;;;3.55;2.47;;;23.10;99.90;;;;;;5113308;28;20220;-51
2022/06/15 05:20:36;;;;;;;4.40;2.50;;;23.30;99.90;;;;;;5107584;28;20204;-52
2022/06/15 05:23:04;;;;;;;3.85;2.47;;;23.40;99.90;;;;;;5107063;28;20242;-52
2022/06/15 05:25:33;;;;;;;6.07;2.50;;;23.50;99.90;;;;;;5113718;28;20681;-52
2022/06/15 05:28:02;;;;;;;4.10;2.20;;;23.70;99.90;;;;;;5113285;28;20258;-52
2022/06/15 05:30:30;;;;;;;3.22;2.38;;;23.90;99.90;;;;;;5112960;28;20938;-52
2022/06/15 05:32:58;;;;;;;5.00;2.30;;;24.40;99.90;;;;;;5112902;28;20268;-52
2022/06/15 05:35:26;;;;;;;5.00;2.55;;;24.40;99.50;;;;;;5113354;28;20261;-52
2022/06/15 05:37:56;;;;;;;3.35;2.30;;;24.80;99.70;;;;;;5111237;28;20223;-52
2022/06/15 05:40:24;;;;;;;4.85;2.70;;;24.90;99.60;;;;;;5105947;28;20203;-52
2022/06/15 05:42:52;;;;;;;5.18;2.80;;;25.00;99.70;;;;;;5110767;28;20234;-51
2022/06/15 05:45:20;;;;;;;4.82;2.70;;;25.30;99.30;;;;;;5113228;28;20207;-52
2022/06/15 05:47:48;;;;;;;7.55;2.72;;;25.30;98.90;;;;;;5089702;28;20281;-51
2022/06/15 05:50:22;;;;;;;6.22;2.42;;;25.40;98.60;;;;;;5092750;28;20216;-52
2022/06/15 05:52:51;;;;;;;8.20;2.80;;;25.70;98.20;;;;;;5107825;28;20252;-51
2022/06/15 05:55:20;;;;;;;3.70;2.65;;;25.60;98.40;;;;;;5092714;28;20227;-52
2022/06/15 05:58:15;;;;;;;6.78;2.63;;;25.80;97.60;;;;;;5109166;28;20231;-50
2022/06/15 06:00:43;;;;;;;4.47;2.50;;;25.80;97.20;;;;;;5076608;28;20662;-52
2022/06/15 06:03:11;;;;;;;4.57;2.70;;;26.00;98.20;;;;;;5111837;28;20708;-52
2022/06/15 06:05:39;;;;;;;4.13;2.42;;;26.20;97.80;;;;;;5111549;28;20243;-52
2022/06/15 06:08:08;;;;;;;4.50;2.70;;;26.10;97.80;;;;;;5112314;28;20195;-52
2022/06/15 06:10:37;;;;;;;5.60;2.50;;;26.00;98.00;;;;;;5112659;28;20675;-52
2022/06/15 06:13:05;;;;;;;5.22;2.83;;;26.30;97.60;;;;;;5112491;28;20235;-52
2022/06/15 06:15:33;;;;;;;3.35;2.40;;;26.70;97.50;;;;;;5112199;28;20255;-52
2022/06/15 06:18:02;;;;;;;4.30;2.40;;;27.00;97.30;;;;;;5111960;28;20227;-52
2022/06/15 06:20:30;;;;;;;4.75;2.53;;;27.00;97.10;;;;;;5105662;28;20195;-52
2022/06/15 06:22:58;;;;;;;5.43;2.70;;;27.30;96.70;;;;;;5105914;28;20211;-52
2022/06/15 06:25:27;;;;;;;5.53;2.70;;;27.10;96.90;;;;;;5110938;28;20579;-52
2022/06/15 06:27:57;;;;;;;5.47;2.40;;;27.30;96.70;;;;;;5112384;28;20212;-52
2022/06/15 06:30:25;;;;;;;4.07;2.50;;;27.40;96.80;;;;;;5111622;28;20200;-52
2022/06/15 06:32:53;;;;;;;4.43;2.78;;;27.40;95.90;;;;;;5113062;28;20204;-52
2022/06/15 06:35:21;;;;;;;3.92;2.60;;;27.60;96.10;;;;;;5112172;28;20250;-52
2022/06/15 06:37:49;;;;;;;5.03;2.40;;;27.60;95.60;;;;;;5092141;28;20282;-51
2022/06/15 06:40:17;;;;;;;3.33;2.25;;;27.90;96.10;;;;;;5085105;28;20239;-52
2022/06/15 06:42:46;;;;;;;4.80;2.42;;;28.00;95.60;;;;;;5107183;28;20204;-52
2022/06/15 06:45:15;;;;;;;5.13;2.63;;;28.20;95.90;;;;;;5107296;28;20246;-51
2022/06/15 06:47:44;;;;;;;4.72;2.40;;;28.30;94.20;;;;;;5094128;28;20595;-52
2022/06/15 06:50:12;;;;;;;4.68;2.60;;;28.40;94.00;;;;;;5111652;28;20755;-52
2022/06/15 06:52:41;;;;;;;5.88;2.35;;;28.30;93.80;;;;;;5111331;28;20272;-51
2022/06/15 06:55:09;;;;;;;5.03;2.55;;;28.10;94.00;;;;;;5111945;28;20208;-51
2022/06/15 06:57:37;;;;;;;5.05;2.28;;;28.40;93.50;;;;;;5111459;28;20255;-52
2022/06/15 07:00:07;;;;;;;4.60;2.15;;;28.50;93.50;;;;;;5111542;28;20211;-52
2022/06/15 07:02:36;;;;;;;3.92;2.22;;;28.90;93.20;;;;;;5110895;28;20203;-52
2022/06/15 07:05:05;;;;;;;3.83;2.33;;;28.60;93.70;;;;;;5111207;28;20264;-52
2022/06/15 07:07:33;;;;;;;5.03;2.20;;;28.80;93.60;;;;;;5111120;28;20268;-52
2022/06/15 07:10:01;;;;;;;3.92;2.30;;;29.00;92.20;;;;;;5110467;28;20671;-52
2022/06/15 07:12:29;;;;;;;4.47;2.40;;;29.20;92.10;;;;;;5111259;28;20268;-52
2022/06/15 07:14:57;;;;;;;4.40;2.15;;;29.20;92.40;;;;;;5111446;28;20215;-50
2022/06/15 07:17:26;;;;;;;5.05;2.00;;;29.20;91.30;;;;;;5092690;28;20223;-51
2022/06/15 07:19:55;;;;;;;5.15;2.20;;;29.20;92.10;;;;;;5081722;28;20243;-52
2022/06/15 07:22:23;;;;;;;3.88;2.10;;;29.40;91.60;;;;;;5088812;28;20235;-52
2022/06/15 07:24:56;;;;;;;3.70;2.03;;;29.60;92.00;;;;;;5098679;28;20215;-52
2022/06/15 07:27:25;;;;;;;6.20;2.08;;;29.50;90.80;;;;;;5110677;28;20223;-52
2022/06/15 07:29:55;;;;;;;4.25;2.50;;;29.70;90.70;;;;;;5099296;28;20201;-52
2022/06/15 07:32:23;;;;;;;3.50;2.13;;;29.50;91.20;;;;;;5087527;28;20250;-53
2022/06/15 07:34:51;;;;;;;3.78;1.95;;;29.50;91.00;;;;;;5110893;28;20207;-52
2022/06/15 07:37:21;;;;;;;4.38;2.20;;;29.40;90.90;;;;;;5110881;28;20253;-53
2022/06/15 07:40:10;;;;;;;3.63;2.00;;;29.20;90.30;;;;;;5110219;28;20290;-53
2022/06/15 07:42:38;;;;;;;4.35;2.08;;;29.40;90.90;;;;;;5110555;28;20249;-52
2022/06/15 07:45:08;;;;;;;3.15;2.20;;;29.60;88.90;;;;;;5110475;28;20211;-52
2022/06/15 07:50:22;;;;;;;3.83;1.90;;;30.00;89.60;;;;;;5107469;28;20207;-53
2022/06/15 07:53:02;;;;;;;3.58;1.90;;;30.00;88.90;;;;;;5088336;28;20689;-53
2022/06/15 07:55:33;;;;;;;2.67;2.03;;;30.20;89.30;;;;;;5090392;28;20269;-53
2022/06/15 07:58:02;;;;;;;3.63;2.20;;;30.20;88.00;;;;;;5087858;28;20281;-53
2022/06/15 08:00:30;;;;;;;3.63;1.90;;;30.10;87.30;;;;;;5090525;28;20208;-51
2022/06/15 08:02:59;;;;;;;4.80;2.00;;;30.20;89.30;;;;;;5089343;28;20239;-53
2022/06/15 08:05:28;;;;;;;3.30;2.00;;;30.20;86.80;;;;;;5090142;28;20204;-52
2022/06/15 08:08:10;;;;;;;4.15;1.98;;;30.30;87.20;;;;;;5089253;28;20250;-52
2022/06/15 08:10:42;;;;;;;4.00;1.90;;;29.90;85.70;;;;;;5096627;28;20227;-52
2022/06/15 08:13:10;;;;;;;5.10;2.10;;;29.40;88.50;;;;;;5110290;28;20204;-52
2022/06/15 08:15:41;;;;;;;3.42;2.25;;;29.00;90.50;;;;;;5110183;28;20238;-52
2022/06/15 08:18:13;;;;;;;4.13;2.30;;;28.70;91.50;;;;;;5110580;28;20764;-52
2022/06/15 08:20:46;;;;;;;3.00;1.83;;;28.50;90.70;;;;;;5100927;28;20621;-52
2022/06/15 08:23:19;;;;;;;6.38;2.42;;;28.30;91.60;;;;;;5101269;28;20200;-52
2022/06/15 08:25:50;;;;;;;3.35;2.05;;;28.30;90.40;;;;;;5109682;28;20207;-52
2022/06/15 08:28:21;;;;;;;4.85;2.28;;;28.10;90.30;;;;;;5109399;28;20261;-52
2022/06/15 08:30:51;;;;;;;3.60;2.17;;;28.20;90.80;;;;;;5105592;28;20232;-52
2022/06/15 08:33:20;;;;;;;3.53;2.20;;;28.20;91.90;;;;;;5100405;28;20249;-52
2022/06/15 08:35:49;;;;;;;3.63;2.20;;;28.30;93.00;;;;;;5099798;28;20205;-52
2022/06/15 08:38:21;;;;;;;6.88;2.17;;;28.40;91.30;;;;;;5092077;28;20257;-52
2022/06/15 08:40:52;;;;;;;3.30;1.95;;;28.30;91.20;;;;;;5109334;28;20211;-51
2022/06/15 08:43:36;;;;;;;6.10;2.63;;;28.20;91.50;;;;;;5110011;28;20248;-52
2022/06/15 08:46:14;;;;;;;6.30;2.20;;;28.10;90.20;;;;;;5109551;28;20227;-52
2022/06/15 08:48:56;;;;;;;6.47;2.40;;;28.20;90.80;;;;;;5104241;28;20264;-52
2022/06/15 08:51:30;;;;;;;4.00;2.47;;;28.20;90.60;;;;;;5109784;28;20204;-52
2022/06/15 08:54:04;;;;;;;3.03;2.00;;;28.30;92.00;;;;;;5109377;28;20672;-52
2022/06/15 08:56:40;;;;;;;3.97;2.20;;;27.90;88.90;;;;;;5109450;28;20288;-52
2022/06/15 08:59:15;;;;;;;3.30;2.20;;;27.80;90.60;;;;;;5099465;28;20289;-52
2022/06/15 09:01:50;;;;;;;6.30;2.55;;;27.90;90.80;;;;;;5109462;28;20203;-52
2022/06/15 09:04:29;;;;;;;4.60;2.40;;;27.80;90.30;;;;;;5109329;28;20285;-52
2022/06/15 09:07:35;;;;;;;3.50;2.17;;;27.90;89.50;;;;;;5110025;28;20227;-51
2022/06/15 09:10:18;;;;;;;5.88;2.80;;;28.00;89.40;;;;;;5108703;28;20250;-51
2022/06/15 09:12:59;;;;;;;5.28;2.45;;;28.20;91.10;;;;;;5109388;28;20260;-52
2022/06/15 09:15:37;;;;;;;4.07;2.42;;;28.20;86.90;;;;;;5109344;28;20249;-52
2022/06/15 09:18:10;;;;;;;3.67;2.35;;;28.20;90.40;;;;;;5109544;28;20339;-51
2022/06/15 09:20:44;;;;;;;5.07;2.40;;;28.30;90.80;;;;;;5109326;28;20223;-52
2022/06/15 09:23:18;;;;;;;3.20;2.20;;;28.40;87.90;;;;;;5103117;28;20211;-52
2022/06/15 09:25:53;;;;;;;2.63;2.30;;;28.10;85.10;;;;;;5109285;28;20323;-51
2022/06/15 09:28:27;;;;;;;3.83;2.35;;;28.10;84.60;;;;;;5109080;28;20725;-52
2022/06/15 09:30:57;;;;;;;3.95;2.40;;;28.10;84.90;;;;;;5109032;28;20231;-52
2022/06/15 09:33:32;;;;;;;3.72;2.63;;;28.10;88.30;;;;;;5108677;28;20218;-52
2022/06/15 09:36:08;;;;;;;3.25;2.58;;;28.00;87.70;;;;;;5108415;28;20203;-52
2022/06/15 09:38:38;;;;;;;5.18;2.70;;;28.10;85.60;;;;;;5108900;28;20823;-51
2022/06/15 09:41:14;;;;;;;4.90;2.58;;;28.10;85.30;;;;;;5109139;28;20208;-52
2022/06/15 09:43:57;;;;;;;4.90;2.90;;;28.20;87.20;;;;;;5109278;28;20241;-52
2022/06/15 09:46:33;;;;;;;5.43;2.95;;;28.20;85.90;;;;;;5109083;28;20223;-52
2022/06/15 09:49:13;;;;;;;5.47;2.95;;;28.10;83.50;;;;;;5104479;28;20207;-51
2022/06/15 09:51:50;;;;;;;5.57;2.50;;;28.00;83.50;;;;;;5084371;28;20925;-52
2022/06/15 09:54:31;;;;;;;3.70;3.00;;;28.10;83.50;;;;;;5108820;28;20204;-52
2022/06/15 09:57:01;;;;;;;8.52;3.22;;;28.10;84.10;;;;;;5106875;28;20224;-52
2022/06/15 09:59:33;;;;;;;3.97;3.30;;;28.20;87.90;;;;;;5104497;28;20304;-52
2022/06/15 10:02:05;;;;;;;4.43;2.78;;;28.10;88.20;;;;;;5112751;28;20280;-51
2022/06/15 10:04:36;;;;;;;3.63;2.55;;;28.10;84.10;;;;;;5112527;28;20218;-52
2022/06/15 10:07:25;;;;;;;6.13;2.95;;;28.20;86.20;;;;;;5113033;28;20261;-51
2022/06/15 10:09:57;;;;;;;5.68;3.13;;;28.10;81.20;;;;;;5111956;28;20613;-52
2022/06/15 10:12:59;;;;;;;4.93;2.92;;;28.00;81.10;;;;;;5112871;28;20235;-52
2022/06/15 10:15:35;;;;;;;6.63;2.85;;;28.10;83.10;;;;;;5112228;28;20738;-51
2022/06/15 10:18:18;;;;;;;5.18;3.22;;;28.10;84.60;;;;;;5112493;28;20223;-52
2022/06/15 10:20:58;;;;;;;5.38;3.30;;;27.90;80.80;;;;;;5112222;28;20199;-50
2022/06/15 10:23:41;;;;;;;5.75;2.90;;;27.80;80.20;;;;;;5105895;28;20234;-52
2022/06/15 10:26:22;;;;;;;5.88;3.08;;;27.90;82.50;;;;;;5112317;28;20822;-52
2022/06/15 10:28:51;;;;;;;3.95;3.03;;;28.00;81.80;;;;;;5112180;28;20207;-51
2022/06/15 10:31:28;;;;;;;7.60;3.30;;;27.90;80.70;;;;;;5103516;28;20242;-52
2022/06/15 10:33:57;;;;;;;6.90;3.47;;;27.90;81.10;;;;;;5107100;28;20214;-51
2022/06/15 10:36:31;;;;;;;5.07;3.58;;;27.90;80.80;;;;;;5099785;28;20237;-52
2022/06/15 10:39:03;;;;;;;6.63;3.60;;;27.90;82.50;;;;;;5111816;28;20285;-52
2022/06/15 10:41:52;;;;;;;5.05;3.40;;;27.90;82.30;;;;;;5111959;28;20207;-51
2022/06/15 10:44:30;;;;;;;5.53;3.20;;;27.80;81.80;;;;;;5112240;28;20258;-52
2022/06/15 10:47:02;;;;;;;5.60;3.22;;;27.90;84.80;;;;;;5109909;28;20231;-52
2022/06/15 10:49:33;;;;;;;3.70;3.13;;;27.90;82.10;;;;;;5108985;28;20191;-52
2022/06/15 10:52:02;;;;;;;5.47;3.20;;;27.90;83.70;;;;;;5111129;28;20604;-52
2022/06/15 11:02:06;;;;;;;6.20;3.20;;;27.90;87.70;;;;;;5110779;28;20199;-51
2022/06/15 11:03:12;;;;;;;7.05;3.42;;;27.90;83.90;;;;;;5111736;28;20204;-52
2022/06/15 11:05:41;;;;;;;4.03;3.10;;;27.90;83.30;;;;;;5093025;28;20565;-53
2022/06/15 11:08:16;;;;;;;6.30;3.20;;;27.90;85.30;;;;;;5104215;28;20208;-52
2022/06/15 11:10:47;;;;;;;6.40;3.10;;;27.90;82.90;;;;;;5103562;28;20207;-53
2022/06/15 11:13:35;;;;;;;5.03;3.33;;;27.90;82.30;;;;;;5092763;28;20234;-52
2022/06/15 11:19:02;;;;;;;4.05;3.00;;;27.80;80.60;;;;;;5106920;27;20564;-51
2022/06/15 11:21:37;;;;;;;6.03;3.22;;;27.70;82.40;;;;;;5099663;28;20463;-51
2022/06/15 11:24:12;;;;;;;4.45;2.92;;;27.70;84.40;;;;;;5104911;28;20242;-51
2022/06/15 11:26:55;;;;;;;4.75;3.10;;;27.70;82.40;;;;;;5106881;28;20245;-51
2022/06/15 11:29:49;;;;;;;6.78;3.38;;;27.70;84.70;;;;;;5107143;28;20207;-51
2022/06/15 11:32:35;;;;;;;4.45;2.85;;;27.80;86.40;;;;;;5106338;28;20203;-51
2022/06/15 11:35:19;;;;;;;5.40;3.30;;;27.80;88.60;;;;;;5104616;28;20242;-51
2022/06/15 11:37:52;;;;;;;6.00;3.22;;;27.90;84.50;;;;;;5106585;28;20231;-51
2022/06/15 11:40:30;;;;;;;5.15;3.47;;;28.10;87.50;;;;;;5107353;28;20207;-51
2022/06/15 11:42:58;;;;;;;5.25;3.25;;;28.10;86.20;;;;;;5106182;28;20203;-50
2022/06/15 11:45:32;;;;;;;6.05;3.40;;;28.20;83.90;;;;;;5106939;28;20207;-50
2022/06/15 11:48:13;;;;;;;4.82;3.35;;;28.20;82.40;;;;;;5098263;28;20650;-51
2022/06/15 11:50:51;;;;;;;6.28;3.50;;;28.20;86.50;;;;;;5106850;28;20583;-51
2022/06/15 11:53:30;;;;;;;4.20;3.17;;;28.20;84.70;;;;;;5105889;28;20237;-51
2022/06/15 11:56:05;;;;;;;6.15;3.80;;;28.20;84.00;;;;;;5106592;28;20269;-51
2022/06/15 11:58:43;;;;;;;6.38;3.33;;;28.10;81.80;;;;;;5095111;28;20207;-51
2022/06/15 12:01:23;;;;;;;4.60;3.33;;;28.00;83.70;;;;;;5105872;28;20549;-51
2022/06/15 12:04:23;;;;;;;4.22;3.30;;;28.10;87.40;;;;;;5106477;28;20204;-50
2022/06/15 12:07:02;;;;;;;7.50;3.40;;;28.10;83.90;;;;;;5106010;28;20220;-51
2022/06/15 12:09:43;;;;;;;6.78;3.25;;;28.20;84.80;;;;;;5106537;28;20199;-51
2022/06/15 12:12:39;;;;;;;6.20;3.50;;;28.20;85.10;;;;;;5103001;28;20230;-51
2022/06/15 12:15:24;;;;;;;5.40;3.28;;;28.20;87.20;;;;;;5100893;28;20268;-51
2022/06/15 12:17:57;;;;;;;6.22;3.33;;;28.10;83.80;;;;;;5105480;28;20246;-51
2022/06/15 12:20:37;;;;;;;7.00;3.30;;;28.10;86.80;;;;;;5103619;28;20738;-51
2022/06/15 12:23:14;;;;;;;5.32;3.83;;;28.00;87.10;;;;;;5091843;28;20216;-50
2022/06/15 12:25:52;;;;;;;4.68;3.17;;;27.90;82.30;;;;;;5105957;28;20260;-50
2022/06/15 12:28:29;;;;;;;5.95;3.80;;;27.90;87.80;;;;;;5102625;28;20220;-50
2022/06/15 12:31:06;;;;;;;6.00;3.80;;;28.00;88.50;;;;;;5092007;28;20230;-51
2022/06/15 12:33:43;;;;;;;5.07;3.40;;;28.10;87.10;;;;;;5075857;28;20220;-51
2022/06/15 12:36:16;;;;;;;8.95;3.58;;;28.10;87.00;;;;;;5075511;28;20228;-51
2022/06/15 12:38:58;;;;;;;4.85;3.40;;;28.20;87.00;;;;;;5065531;28;20214;-51
2022/06/15 12:44:19;;;;;;;5.25;3.45;;;28.00;83.60;;;;;;5091732;28;20259;-51
2022/06/15 12:46:49;;;;;;;5.80;3.45;;;28.10;83.90;;;;;;5091069;28;20611;-51
2022/06/15 12:49:45;;;;;;;5.53;3.70;;;28.10;82.30;;;;;;5084468;28;20580;-51
2022/06/15 12:52:20;;;;;;;6.22;3.58;;;28.20;84.20;;;;;;5091129;28;20208;-51
2022/06/15 12:55:00;;;;;;;5.70;3.85;;;28.20;81.30;;;;;;5091509;28;20269;-51
2022/06/15 12:57:38;;;;;;;6.47;3.67;;;28.10;81.00;;;;;;5059754;28;20228;-51
2022/06/15 13:00:15;;;;;;;5.55;3.33;;;27.90;81.00;;;;;;5082785;28;20200;-50
2022/06/15 13:02:59;;;;;;;6.20;4.07;;;27.90;82.20;;;;;;5065972;28;20212;-51
2022/06/15 13:05:31;;;;;;;6.07;3.70;;;27.90;83.80;;;;;;5068796;28;20212;-50
2022/06/15 13:08:31;;;;;;;5.85;3.70;;;27.90;80.40;;;;;;5061140;28;20228;-51
2022/06/15 13:11:10;;;;;;;5.88;3.80;;;27.90;80.40;;;;;;5080272;28;20216;-50
2022/06/15 13:13:42;;;;;;;5.43;3.95;;;27.80;80.60;;;;;;5086407;28;20598;-51
2022/06/15 13:16:13;;;;;;;5.72;3.60;;;27.80;79.80;;;;;;5091499;28;20341;-51
2022/06/15 13:18:47;;;;;;;4.35;3.50;;;27.80;82.30;;;;;;5090433;28;20234;-51
2022/06/15 13:21:17;;;;;;;5.25;3.78;;;27.90;81.50;;;;;;5090030;28;20211;-51
2022/06/15 13:23:47;;;;;;;7.53;4.05;;;27.90;83.80;;;;;;5086143;28;20212;-50
2022/06/15 13:26:23;;;;;;;5.13;3.50;;;28.00;83.10;;;;;;5091365;28;20282;-51
2022/06/15 13:29:19;;;;;;;5.35;3.35;;;27.90;84.50;;;;;;5090384;28;20612;-50
2022/06/15 13:31:57;;;;;;;4.20;3.25;;;27.90;84.70;;;;;;5091444;28;20242;-50
2022/06/15 13:34:47;;;;;;;6.78;3.60;;;28.10;85.50;;;;;;5090361;28;20221;-51
2022/06/15 13:37:35;;;;;;;7.40;3.78;;;28.20;84.30;;;;;;5085909;28;20742;-51